sensor_id;sensor_type;location;lat;lon;timestamp;P1;durP1;ratioP1;P2;durP2;ratioP2
63046;SDS011;62025;39.238;9.126;2022-08-18T00:02:00;24.40;;;6.85;;
63046;SDS011;62025;39.238;9.126;2022-08-18T00:04:31;19.88;;;6.18;;
63046;SDS011;62025;39.238;9.126;2022-08-18T00:07:00;34.08;;;7.47;;
63046;SDS011;62025;39.238;9.126;2022-08-18T00:09:26;27.10;;;7.65;;
63046;SDS011;62025;39.238;9.126;2022-08-18T00:11:53;26.80;;;7.57;;
63046;SDS011;62025;39.238;9.126;2022-08-18T00:14:19;36.20;;;8.80;;
63046;SDS011;62025;39.238;9.126;2022-08-18T00:16:46;28.67;;;8.55;;
63046;SDS011;62025;39.238;9.126;2022-08-18T00:19:13;23.48;;;7.80;;
63046;SDS011;62025;39.238;9.126;2022-08-18T00:21:40;28.45;;;8.05;;
63046;SDS011;62025;39.238;9.126;2022-08-18T00:24:06;29.80;;;8.10;;
63046;SDS011;62025;39.238;9.126;2022-08-18T00:26:32;30.30;;;8.07;;
63046;SDS011;62025;39.238;9.126;2022-08-18T00:28:58;26.40;;;7.95;;
63046;SDS011;62025;39.238;9.126;2022-08-18T00:31:24;32.78;;;8.35;;
63046;SDS011;62025;39.238;9.126;2022-08-18T00:33:51;28.88;;;6.80;;
63046;SDS011;62025;39.238;9.126;2022-08-18T00:36:17;27.08;;;6.97;;
63046;SDS011;62025;39.238;9.126;2022-08-18T00:38:43;24.98;;;6.53;;
63046;SDS011;62025;39.238;9.126;2022-08-18T00:41:09;20.92;;;6.15;;
63046;SDS011;62025;39.238;9.126;2022-08-18T00:43:39;20.67;;;6.43;;
63046;SDS011;62025;39.238;9.126;2022-08-18T00:46:23;25.70;;;6.65;;
63046;SDS011;62025;39.238;9.126;2022-08-18T00:48:53;34.58;;;6.72;;
63046;SDS011;62025;39.238;9.126;2022-08-18T00:51:34;23.65;;;6.63;;
63046;SDS011;62025;39.238;9.126;2022-08-18T00:54:09;29.10;;;6.97;;
63046;SDS011;62025;39.238;9.126;2022-08-18T00:56:50;23.63;;;6.38;;
63046;SDS011;62025;39.238;9.126;2022-08-18T00:59:28;27.30;;;7.00;;
63046;SDS011;62025;39.238;9.126;2022-08-18T01:02:30;27.92;;;7.35;;
63046;SDS011;62025;39.238;9.126;2022-08-18T01:05:06;23.77;;;6.68;;
63046;SDS011;62025;39.238;9.126;2022-08-18T01:07:41;33.60;;;7.50;;
63046;SDS011;62025;39.238;9.126;2022-08-18T01:10:11;27.65;;;6.65;;
63046;SDS011;62025;39.238;9.126;2022-08-18T01:12:42;26.75;;;7.38;;
63046;SDS011;62025;39.238;9.126;2022-08-18T01:15:11;31.83;;;7.30;;
63046;SDS011;62025;39.238;9.126;2022-08-18T01:17:41;25.60;;;7.18;;
63046;SDS011;62025;39.238;9.126;2022-08-18T01:20:28;27.15;;;7.28;;
63046;SDS011;62025;39.238;9.126;2022-08-18T01:23:22;22.05;;;7.85;;
63046;SDS011;62025;39.238;9.126;2022-08-18T01:25:48;27.98;;;7.57;;
63046;SDS011;62025;39.238;9.126;2022-08-18T01:28:25;34.00;;;8.85;;
63046;SDS011;62025;39.238;9.126;2022-08-18T01:30:54;32.90;;;9.25;;
63046;SDS011;62025;39.238;9.126;2022-08-18T01:33:27;25.35;;;9.10;;
63046;SDS011;62025;39.238;9.126;2022-08-18T01:35:58;30.55;;;8.95;;
63046;SDS011;62025;39.238;9.126;2022-08-18T01:38:45;23.15;;;8.95;;
63046;SDS011;62025;39.238;9.126;2022-08-18T01:41:15;31.85;;;9.15;;
63046;SDS011;62025;39.238;9.126;2022-08-18T01:43:43;33.03;;;9.00;;
63046;SDS011;62025;39.238;9.126;2022-08-18T01:46:10;36.00;;;8.97;;
63046;SDS011;62025;39.238;9.126;2022-08-18T01:48:38;39.90;;;9.50;;
63046;SDS011;62025;39.238;9.126;2022-08-18T01:51:05;34.05;;;9.02;;
63046;SDS011;62025;39.238;9.126;2022-08-18T01:53:34;38.67;;;9.43;;
63046;SDS011;62025;39.238;9.126;2022-08-18T01:56:01;34.73;;;10.20;;
63046;SDS011;62025;39.238;9.126;2022-08-18T01:58:30;34.40;;;9.48;;
63046;SDS011;62025;39.238;9.126;2022-08-18T02:00:58;35.45;;;9.77;;
63046;SDS011;62025;39.238;9.126;2022-08-18T02:03:45;35.45;;;10.73;;
63046;SDS011;62025;39.238;9.126;2022-08-18T02:06:17;34.53;;;11.75;;
63046;SDS011;62025;39.238;9.126;2022-08-18T02:08:44;33.75;;;12.57;;
63046;SDS011;62025;39.238;9.126;2022-08-18T02:11:11;29.98;;;13.93;;
63046;SDS011;62025;39.238;9.126;2022-08-18T02:13:38;42.80;;;15.23;;
63046;SDS011;62025;39.238;9.126;2022-08-18T02:16:05;34.42;;;13.65;;
63046;SDS011;62025;39.238;9.126;2022-08-18T02:18:34;29.90;;;13.65;;
63046;SDS011;62025;39.238;9.126;2022-08-18T02:21:06;37.65;;;12.90;;
63046;SDS011;62025;39.238;9.126;2022-08-18T02:23:36;32.53;;;12.55;;
63046;SDS011;62025;39.238;9.126;2022-08-18T02:28:37;33.08;;;12.68;;
63046;SDS011;62025;39.238;9.126;2022-08-18T02:31:05;41.95;;;13.10;;
63046;SDS011;62025;39.238;9.126;2022-08-18T02:33:39;35.63;;;13.48;;
63046;SDS011;62025;39.238;9.126;2022-08-18T02:36:07;29.65;;;12.82;;
63046;SDS011;62025;39.238;9.126;2022-08-18T02:38:33;35.47;;;12.50;;
63046;SDS011;62025;39.238;9.126;2022-08-18T02:41:01;34.30;;;12.40;;
63046;SDS011;62025;39.238;9.126;2022-08-18T02:43:30;37.65;;;12.43;;
63046;SDS011;62025;39.238;9.126;2022-08-18T02:45:57;32.13;;;12.43;;
63046;SDS011;62025;39.238;9.126;2022-08-18T02:48:23;39.42;;;12.38;;
63046;SDS011;62025;39.238;9.126;2022-08-18T02:51:09;37.75;;;12.00;;
63046;SDS011;62025;39.238;9.126;2022-08-18T02:53:41;30.65;;;11.88;;
63046;SDS011;62025;39.238;9.126;2022-08-18T02:56:20;35.85;;;11.05;;
63046;SDS011;62025;39.238;9.126;2022-08-18T02:58:58;36.75;;;12.07;;
63046;SDS011;62025;39.238;9.126;2022-08-18T03:01:30;36.92;;;11.60;;
63046;SDS011;62025;39.238;9.126;2022-08-18T03:04:00;39.83;;;11.20;;
63046;SDS011;62025;39.238;9.126;2022-08-18T03:06:27;30.95;;;11.15;;
63046;SDS011;62025;39.238;9.126;2022-08-18T03:08:54;34.92;;;10.68;;
63046;SDS011;62025;39.238;9.126;2022-08-18T03:11:22;38.42;;;12.27;;
63046;SDS011;62025;39.238;9.126;2022-08-18T03:13:52;34.72;;;10.75;;
63046;SDS011;62025;39.238;9.126;2022-08-18T03:16:20;32.05;;;10.52;;
63046;SDS011;62025;39.238;9.126;2022-08-18T03:18:49;34.80;;;10.57;;
63046;SDS011;62025;39.238;9.126;2022-08-18T03:21:19;33.65;;;10.65;;
63046;SDS011;62025;39.238;9.126;2022-08-18T03:23:49;36.90;;;10.50;;
63046;SDS011;62025;39.238;9.126;2022-08-18T03:26:18;39.60;;;10.70;;
63046;SDS011;62025;39.238;9.126;2022-08-18T03:31:14;26.98;;;9.65;;
63046;SDS011;62025;39.238;9.126;2022-08-18T03:33:43;29.13;;;9.98;;
63046;SDS011;62025;39.238;9.126;2022-08-18T03:38:42;36.90;;;9.95;;
63046;SDS011;62025;39.238;9.126;2022-08-18T03:41:11;43.10;;;10.30;;
63046;SDS011;62025;39.238;9.126;2022-08-18T03:43:40;40.53;;;10.10;;
63046;SDS011;62025;39.238;9.126;2022-08-18T03:46:08;36.38;;;9.07;;
63046;SDS011;62025;39.238;9.126;2022-08-18T03:48:38;28.02;;;8.73;;
63046;SDS011;62025;39.238;9.126;2022-08-18T03:51:08;37.90;;;8.73;;
63046;SDS011;62025;39.238;9.126;2022-08-18T03:53:39;36.05;;;8.80;;
63046;SDS011;62025;39.238;9.126;2022-08-18T03:56:07;41.75;;;9.88;;
63046;SDS011;62025;39.238;9.126;2022-08-18T03:58:59;33.67;;;8.32;;
63046;SDS011;62025;39.238;9.126;2022-08-18T04:01:31;39.45;;;9.25;;
63046;SDS011;62025;39.238;9.126;2022-08-18T04:04:00;29.88;;;9.05;;
63046;SDS011;62025;39.238;9.126;2022-08-18T04:06:33;27.25;;;8.25;;
63046;SDS011;62025;39.238;9.126;2022-08-18T04:09:05;39.88;;;9.38;;
63046;SDS011;62025;39.238;9.126;2022-08-18T04:11:36;33.67;;;8.25;;
63046;SDS011;62025;39.238;9.126;2022-08-18T04:14:04;35.00;;;8.45;;
63046;SDS011;62025;39.238;9.126;2022-08-18T04:16:30;25.88;;;7.65;;
63046;SDS011;62025;39.238;9.126;2022-08-18T04:18:59;35.38;;;8.18;;
63046;SDS011;62025;39.238;9.126;2022-08-18T04:21:28;38.63;;;8.95;;
63046;SDS011;62025;39.238;9.126;2022-08-18T04:23:59;30.88;;;8.45;;
63046;SDS011;62025;39.238;9.126;2022-08-18T04:26:33;30.92;;;8.18;;
63046;SDS011;62025;39.238;9.126;2022-08-18T04:29:03;35.17;;;8.85;;
63046;SDS011;62025;39.238;9.126;2022-08-18T04:31:30;36.83;;;7.63;;
63046;SDS011;62025;39.238;9.126;2022-08-18T04:33:57;29.42;;;8.50;;
63046;SDS011;62025;39.238;9.126;2022-08-18T04:36:26;35.53;;;8.43;;
63046;SDS011;62025;39.238;9.126;2022-08-18T04:38:55;37.38;;;8.35;;
63046;SDS011;62025;39.238;9.126;2022-08-18T04:41:23;34.63;;;8.25;;
63046;SDS011;62025;39.238;9.126;2022-08-18T04:43:52;32.42;;;8.13;;
63046;SDS011;62025;39.238;9.126;2022-08-18T04:46:20;32.42;;;7.53;;
63046;SDS011;62025;39.238;9.126;2022-08-18T04:48:46;45.78;;;8.90;;
63046;SDS011;62025;39.238;9.126;2022-08-18T04:51:13;30.83;;;8.35;;
63046;SDS011;62025;39.238;9.126;2022-08-18T04:53:43;32.47;;;8.10;;
63046;SDS011;62025;39.238;9.126;2022-08-18T04:56:17;29.80;;;7.75;;
63046;SDS011;62025;39.238;9.126;2022-08-18T04:58:53;28.15;;;8.43;;
63046;SDS011;62025;39.238;9.126;2022-08-18T05:01:25;52.53;;;9.35;;
63046;SDS011;62025;39.238;9.126;2022-08-18T05:03:57;33.33;;;8.20;;
63046;SDS011;62025;39.238;9.126;2022-08-18T05:06:24;25.25;;;7.93;;
63046;SDS011;62025;39.238;9.126;2022-08-18T05:08:52;30.70;;;8.05;;
63046;SDS011;62025;39.238;9.126;2022-08-18T05:11:22;29.83;;;7.82;;
63046;SDS011;62025;39.238;9.126;2022-08-18T05:13:54;29.65;;;7.57;;
63046;SDS011;62025;39.238;9.126;2022-08-18T05:16:22;34.40;;;8.13;;
63046;SDS011;62025;39.238;9.126;2022-08-18T05:18:50;22.25;;;7.20;;
63046;SDS011;62025;39.238;9.126;2022-08-18T05:21:17;26.20;;;7.25;;
63046;SDS011;62025;39.238;9.126;2022-08-18T05:23:46;29.50;;;7.55;;
63046;SDS011;62025;39.238;9.126;2022-08-18T05:28:42;27.63;;;7.75;;
63046;SDS011;62025;39.238;9.126;2022-08-18T05:31:17;36.80;;;8.30;;
63046;SDS011;62025;39.238;9.126;2022-08-18T05:33:47;30.90;;;7.68;;
63046;SDS011;62025;39.238;9.126;2022-08-18T05:39:05;27.33;;;7.60;;
63046;SDS011;62025;39.238;9.126;2022-08-18T05:42:03;31.20;;;8.82;;
63046;SDS011;62025;39.238;9.126;2022-08-18T05:44:39;25.75;;;7.50;;
63046;SDS011;62025;39.238;9.126;2022-08-18T05:49:45;23.60;;;8.20;;
63046;SDS011;62025;39.238;9.126;2022-08-18T05:52:27;29.60;;;8.38;;
63046;SDS011;62025;39.238;9.126;2022-08-18T05:55:27;23.05;;;7.82;;
63046;SDS011;62025;39.238;9.126;2022-08-18T05:58:27;27.67;;;8.02;;
63046;SDS011;62025;39.238;9.126;2022-08-18T06:01:05;25.20;;;8.07;;
63046;SDS011;62025;39.238;9.126;2022-08-18T06:03:51;27.55;;;8.15;;
63046;SDS011;62025;39.238;9.126;2022-08-18T06:08:57;33.08;;;8.07;;
63046;SDS011;62025;39.238;9.126;2022-08-18T06:11:25;24.63;;;7.93;;
63046;SDS011;62025;39.238;9.126;2022-08-18T06:13:51;28.15;;;8.00;;
63046;SDS011;62025;39.238;9.126;2022-08-18T06:24:49;26.83;;;8.00;;
63046;SDS011;62025;39.238;9.126;2022-08-18T06:33:42;26.58;;;7.35;;
63046;SDS011;62025;39.238;9.126;2022-08-18T06:36:34;32.75;;;7.32;;
63046;SDS011;62025;39.238;9.126;2022-08-18T06:39:17;26.35;;;6.30;;
63046;SDS011;62025;39.238;9.126;2022-08-18T06:42:12;27.45;;;5.97;;
63046;SDS011;62025;39.238;9.126;2022-08-18T06:44:46;20.85;;;5.10;;
63046;SDS011;62025;39.238;9.126;2022-08-18T06:47:19;23.75;;;5.13;;
63046;SDS011;62025;39.238;9.126;2022-08-18T06:52:52;22.20;;;5.32;;
63046;SDS011;62025;39.238;9.126;2022-08-18T06:58:03;27.50;;;4.55;;
63046;SDS011;62025;39.238;9.126;2022-08-18T07:08:49;22.50;;;5.22;;
63046;SDS011;62025;39.238;9.126;2022-08-18T07:11:29;26.92;;;5.25;;
63046;SDS011;62025;39.238;9.126;2022-08-18T07:14:12;26.85;;;5.40;;
63046;SDS011;62025;39.238;9.126;2022-08-18T07:16:45;28.00;;;4.78;;
63046;SDS011;62025;39.238;9.126;2022-08-18T07:19:14;21.95;;;5.07;;
63046;SDS011;62025;39.238;9.126;2022-08-18T07:21:46;23.88;;;4.88;;
63046;SDS011;62025;39.238;9.126;2022-08-18T07:24:40;17.05;;;4.68;;
63046;SDS011;62025;39.238;9.126;2022-08-18T07:27:11;20.15;;;4.72;;
63046;SDS011;62025;39.238;9.126;2022-08-18T07:30:04;21.58;;;5.38;;
63046;SDS011;62025;39.238;9.126;2022-08-18T07:38:16;26.50;;;6.03;;
63046;SDS011;62025;39.238;9.126;2022-08-18T07:41:05;19.80;;;5.30;;
63046;SDS011;62025;39.238;9.126;2022-08-18T07:46:25;29.63;;;5.85;;
63046;SDS011;62025;39.238;9.126;2022-08-18T07:49:01;24.85;;;4.90;;
63046;SDS011;62025;39.238;9.126;2022-08-18T07:51:30;25.53;;;5.73;;
63046;SDS011;62025;39.238;9.126;2022-08-18T08:08:39;21.55;;;5.28;;
63046;SDS011;62025;39.238;9.126;2022-08-18T08:14:18;22.67;;;4.55;;
63046;SDS011;62025;39.238;9.126;2022-08-18T08:20:02;24.10;;;5.38;;
63046;SDS011;62025;39.238;9.126;2022-08-18T08:23:04;21.75;;;4.60;;
63046;SDS011;62025;39.238;9.126;2022-08-18T08:25:45;30.85;;;5.25;;
63046;SDS011;62025;39.238;9.126;2022-08-18T08:28:29;30.65;;;5.50;;
63046;SDS011;62025;39.238;9.126;2022-08-18T08:31:42;24.65;;;4.93;;
63046;SDS011;62025;39.238;9.126;2022-08-18T08:37:09;27.60;;;5.28;;
63046;SDS011;62025;39.238;9.126;2022-08-18T08:39:50;27.27;;;4.80;;
63046;SDS011;62025;39.238;9.126;2022-08-18T08:42:24;19.48;;;4.63;;
63046;SDS011;62025;39.238;9.126;2022-08-18T08:45:25;21.67;;;4.75;;
63046;SDS011;62025;39.238;9.126;2022-08-18T08:50:47;18.63;;;4.60;;
63046;SDS011;62025;39.238;9.126;2022-08-18T08:53:22;23.48;;;5.10;;
63046;SDS011;62025;39.238;9.126;2022-08-18T08:56:02;19.02;;;4.95;;
63046;SDS011;62025;39.238;9.126;2022-08-18T08:58:51;25.90;;;4.90;;
63046;SDS011;62025;39.238;9.126;2022-08-18T09:01:26;18.65;;;4.10;;
63046;SDS011;62025;39.238;9.126;2022-08-18T09:04:08;24.23;;;4.80;;
63046;SDS011;62025;39.238;9.126;2022-08-18T09:28:21;15.32;;;4.32;;
63046;SDS011;62025;39.238;9.126;2022-08-18T09:33:32;18.75;;;4.97;;
63046;SDS011;62025;39.238;9.126;2022-08-18T09:36:36;26.98;;;5.72;;
63046;SDS011;62025;39.238;9.126;2022-08-18T09:40:02;23.20;;;6.20;;
63046;SDS011;62025;39.238;9.126;2022-08-18T09:43:14;25.00;;;5.30;;
63046;SDS011;62025;39.238;9.126;2022-08-18T09:46:00;22.67;;;5.25;;
63046;SDS011;62025;39.238;9.126;2022-08-18T09:48:34;25.48;;;4.78;;
63046;SDS011;62025;39.238;9.126;2022-08-18T09:54:07;24.17;;;5.00;;
63046;SDS011;62025;39.238;9.126;2022-08-18T10:02:01;17.80;;;5.28;;
63046;SDS011;62025;39.238;9.126;2022-08-18T10:04:35;20.27;;;5.18;;
63046;SDS011;62025;39.238;9.126;2022-08-18T10:07:14;22.52;;;5.95;;
63046;SDS011;62025;39.238;9.126;2022-08-18T10:15:45;24.52;;;5.55;;
63046;SDS011;62025;39.238;9.126;2022-08-18T10:24:47;16.48;;;4.43;;
63046;SDS011;62025;39.238;9.126;2022-08-18T10:32:56;22.15;;;5.18;;
63046;SDS011;62025;39.238;9.126;2022-08-18T10:38:03;19.58;;;4.43;;
63046;SDS011;62025;39.238;9.126;2022-08-18T10:41:01;17.88;;;4.80;;
63046;SDS011;62025;39.238;9.126;2022-08-18T10:43:36;19.27;;;5.03;;
63046;SDS011;62025;39.238;9.126;2022-08-18T10:46:19;22.33;;;4.53;;
63046;SDS011;62025;39.238;9.126;2022-08-18T10:49:03;14.15;;;4.07;;
63046;SDS011;62025;39.238;9.126;2022-08-18T11:01:15;20.27;;;5.20;;
63046;SDS011;62025;39.238;9.126;2022-08-18T11:03:41;22.23;;;4.72;;
63046;SDS011;62025;39.238;9.126;2022-08-18T11:06:23;24.67;;;4.65;;
63046;SDS011;62025;39.238;9.126;2022-08-18T11:08:56;16.20;;;4.57;;
63046;SDS011;62025;39.238;9.126;2022-08-18T11:11:32;12.45;;;3.88;;
63046;SDS011;62025;39.238;9.126;2022-08-18T11:19:09;14.52;;;4.43;;
63046;SDS011;62025;39.238;9.126;2022-08-18T11:21:44;15.00;;;4.00;;
63046;SDS011;62025;39.238;9.126;2022-08-18T11:24:17;13.80;;;4.15;;
63046;SDS011;62025;39.238;9.126;2022-08-18T11:26:55;12.88;;;4.43;;
63046;SDS011;62025;39.238;9.126;2022-08-18T11:29:34;11.70;;;4.00;;
63046;SDS011;62025;39.238;9.126;2022-08-18T11:32:13;16.38;;;4.15;;
63046;SDS011;62025;39.238;9.126;2022-08-18T11:35:04;12.98;;;3.63;;
63046;SDS011;62025;39.238;9.126;2022-08-18T11:37:42;11.75;;;4.05;;
63046;SDS011;62025;39.238;9.126;2022-08-18T11:43:01;17.20;;;4.78;;
63046;SDS011;62025;39.238;9.126;2022-08-18T11:51:15;13.82;;;4.28;;
63046;SDS011;62025;39.238;9.126;2022-08-18T11:56:16;16.48;;;4.28;;
63046;SDS011;62025;39.238;9.126;2022-08-18T12:04:13;16.92;;;4.95;;
63046;SDS011;62025;39.238;9.126;2022-08-18T12:06:40;11.93;;;4.13;;
63046;SDS011;62025;39.238;9.126;2022-08-18T12:10:08;15.40;;;3.78;;
63046;SDS011;62025;39.238;9.126;2022-08-18T12:12:33;15.48;;;3.63;;
63046;SDS011;62025;39.238;9.126;2022-08-18T12:17:38;17.55;;;4.07;;
63046;SDS011;62025;39.238;9.126;2022-08-18T12:20:07;16.00;;;4.35;;
63046;SDS011;62025;39.238;9.126;2022-08-18T12:22:35;20.67;;;4.15;;
63046;SDS011;62025;39.238;9.126;2022-08-18T12:25:04;12.95;;;3.50;;
63046;SDS011;62025;39.238;9.126;2022-08-18T12:27:35;15.55;;;4.30;;
63046;SDS011;62025;39.238;9.126;2022-08-18T12:30:01;13.25;;;4.07;;
63046;SDS011;62025;39.238;9.126;2022-08-18T12:32:32;13.95;;;4.22;;
63046;SDS011;62025;39.238;9.126;2022-08-18T12:35:00;14.25;;;3.80;;
63046;SDS011;62025;39.238;9.126;2022-08-18T12:37:28;13.10;;;3.80;;
63046;SDS011;62025;39.238;9.126;2022-08-18T12:39:55;15.70;;;4.03;;
63046;SDS011;62025;39.238;9.126;2022-08-18T12:42:23;16.10;;;4.13;;
63046;SDS011;62025;39.238;9.126;2022-08-18T12:44:50;14.82;;;4.05;;
63046;SDS011;62025;39.238;9.126;2022-08-18T12:47:18;9.50;;;3.37;;
63046;SDS011;62025;39.238;9.126;2022-08-18T12:49:48;11.18;;;3.63;;
63046;SDS011;62025;39.238;9.126;2022-08-18T12:52:15;11.10;;;3.55;;
63046;SDS011;62025;39.238;9.126;2022-08-18T12:57:21;14.35;;;3.78;;
63046;SDS011;62025;39.238;9.126;2022-08-18T12:59:49;15.73;;;4.50;;
63046;SDS011;62025;39.238;9.126;2022-08-18T13:02:15;16.38;;;4.35;;
63046;SDS011;62025;39.238;9.126;2022-08-18T13:04:42;15.73;;;4.43;;
63046;SDS011;62025;39.238;9.126;2022-08-18T13:07:10;14.85;;;5.10;;
63046;SDS011;62025;39.238;9.126;2022-08-18T13:09:38;18.23;;;4.13;;
63046;SDS011;62025;39.238;9.126;2022-08-18T13:12:04;17.52;;;4.60;;
63046;SDS011;62025;39.238;9.126;2022-08-18T13:14:31;17.80;;;4.53;;
63046;SDS011;62025;39.238;9.126;2022-08-18T13:16:58;19.17;;;4.57;;
63046;SDS011;62025;39.238;9.126;2022-08-18T13:19:24;16.55;;;4.40;;
63046;SDS011;62025;39.238;9.126;2022-08-18T13:21:50;17.50;;;4.53;;
63046;SDS011;62025;39.238;9.126;2022-08-18T13:24:17;14.45;;;4.75;;
63046;SDS011;62025;39.238;9.126;2022-08-18T13:26:44;14.43;;;5.00;;
63046;SDS011;62025;39.238;9.126;2022-08-18T13:29:13;17.35;;;5.22;;
63046;SDS011;62025;39.238;9.126;2022-08-18T13:31:41;15.45;;;4.75;;
63046;SDS011;62025;39.238;9.126;2022-08-18T13:34:08;12.13;;;4.10;;
63046;SDS011;62025;39.238;9.126;2022-08-18T13:36:35;11.43;;;4.13;;
63046;SDS011;62025;39.238;9.126;2022-08-18T13:39:20;10.80;;;4.10;;
63046;SDS011;62025;39.238;9.126;2022-08-18T13:41:49;14.30;;;3.70;;
63046;SDS011;62025;39.238;9.126;2022-08-18T13:44:18;17.25;;;4.20;;
63046;SDS011;62025;39.238;9.126;2022-08-18T13:46:47;11.75;;;3.90;;
63046;SDS011;62025;39.238;9.126;2022-08-18T13:49:19;14.55;;;3.88;;
63046;SDS011;62025;39.238;9.126;2022-08-18T13:51:48;15.13;;;3.90;;
63046;SDS011;62025;39.238;9.126;2022-08-18T13:54:21;12.63;;;4.30;;
63046;SDS011;62025;39.238;9.126;2022-08-18T13:56:52;13.77;;;3.88;;
63046;SDS011;62025;39.238;9.126;2022-08-18T13:59:20;10.40;;;3.40;;
63046;SDS011;62025;39.238;9.126;2022-08-18T14:04:15;8.57;;;2.80;;
63046;SDS011;62025;39.238;9.126;2022-08-18T14:06:42;9.65;;;3.53;;
63046;SDS011;62025;39.238;9.126;2022-08-18T14:09:08;11.77;;;3.55;;
63046;SDS011;62025;39.238;9.126;2022-08-18T14:11:35;12.13;;;3.67;;
63046;SDS011;62025;39.238;9.126;2022-08-18T14:14:02;12.40;;;3.80;;
63046;SDS011;62025;39.238;9.126;2022-08-18T14:16:30;12.45;;;3.17;;
63046;SDS011;62025;39.238;9.126;2022-08-18T14:18:57;10.18;;;3.28;;
63046;SDS011;62025;39.238;9.126;2022-08-18T14:21:44;12.13;;;3.42;;
63046;SDS011;62025;39.238;9.126;2022-08-18T14:24:35;12.85;;;3.60;;
63046;SDS011;62025;39.238;9.126;2022-08-18T14:27:23;12.10;;;3.67;;
63046;SDS011;62025;39.238;9.126;2022-08-18T14:29:55;12.43;;;3.63;;
63046;SDS011;62025;39.238;9.126;2022-08-18T14:34:51;13.85;;;4.00;;
63046;SDS011;62025;39.238;9.126;2022-08-18T14:37:18;16.50;;;3.92;;
63046;SDS011;62025;39.238;9.126;2022-08-18T14:39:45;18.23;;;3.88;;
63046;SDS011;62025;39.238;9.126;2022-08-18T14:42:13;13.60;;;3.33;;
63046;SDS011;62025;39.238;9.126;2022-08-18T14:44:40;16.98;;;4.32;;
63046;SDS011;62025;39.238;9.126;2022-08-18T14:47:06;22.77;;;4.18;;
63046;SDS011;62025;39.238;9.126;2022-08-18T14:49:33;12.93;;;3.38;;
63046;SDS011;62025;39.238;9.126;2022-08-18T14:52:00;17.33;;;3.85;;
63046;SDS011;62025;39.238;9.126;2022-08-18T14:54:28;10.63;;;2.90;;
63046;SDS011;62025;39.238;9.126;2022-08-18T14:56:55;17.02;;;3.28;;
63046;SDS011;62025;39.238;9.126;2022-08-18T14:59:22;14.52;;;3.03;;
63046;SDS011;62025;39.238;9.126;2022-08-18T15:01:49;19.10;;;3.58;;
63046;SDS011;62025;39.238;9.126;2022-08-18T15:04:15;12.27;;;3.22;;
63046;SDS011;62025;39.238;9.126;2022-08-18T15:06:41;13.02;;;3.30;;
63046;SDS011;62025;39.238;9.126;2022-08-18T15:09:07;13.02;;;3.13;;
63046;SDS011;62025;39.238;9.126;2022-08-18T15:11:34;14.82;;;3.67;;
63046;SDS011;62025;39.238;9.126;2022-08-18T15:14:00;15.27;;;3.15;;
63046;SDS011;62025;39.238;9.126;2022-08-18T15:16:26;15.07;;;3.33;;
63046;SDS011;62025;39.238;9.126;2022-08-18T15:18:58;15.57;;;3.40;;
63046;SDS011;62025;39.238;9.126;2022-08-18T15:21:25;13.07;;;2.80;;
63046;SDS011;62025;39.238;9.126;2022-08-18T15:24:11;14.02;;;3.10;;
63046;SDS011;62025;39.238;9.126;2022-08-18T15:26:56;12.27;;;2.90;;
63046;SDS011;62025;39.238;9.126;2022-08-18T15:29:23;16.63;;;3.25;;
63046;SDS011;62025;39.238;9.126;2022-08-18T15:31:51;12.73;;;3.30;;
63046;SDS011;62025;39.238;9.126;2022-08-18T15:34:17;16.48;;;3.05;;
63046;SDS011;62025;39.238;9.126;2022-08-18T15:36:43;10.13;;;2.90;;
63046;SDS011;62025;39.238;9.126;2022-08-18T15:41:41;10.82;;;2.83;;
63046;SDS011;62025;39.238;9.126;2022-08-18T15:44:13;9.93;;;2.92;;
63046;SDS011;62025;39.238;9.126;2022-08-18T15:46:42;8.45;;;2.58;;
63046;SDS011;62025;39.238;9.126;2022-08-18T15:49:09;8.85;;;2.95;;
63046;SDS011;62025;39.238;9.126;2022-08-18T15:51:36;9.90;;;2.88;;
63046;SDS011;62025;39.238;9.126;2022-08-18T15:54:05;10.40;;;2.63;;
63046;SDS011;62025;39.238;9.126;2022-08-18T15:56:32;13.27;;;2.50;;
63046;SDS011;62025;39.238;9.126;2022-08-18T15:58:59;11.55;;;3.30;;
63046;SDS011;62025;39.238;9.126;2022-08-18T16:01:34;10.80;;;3.17;;
63046;SDS011;62025;39.238;9.126;2022-08-18T16:04:02;11.15;;;3.05;;
63046;SDS011;62025;39.238;9.126;2022-08-18T16:06:30;13.90;;;3.22;;
63046;SDS011;62025;39.238;9.126;2022-08-18T16:08:59;11.20;;;3.15;;
63046;SDS011;62025;39.238;9.126;2022-08-18T16:13:53;12.32;;;3.42;;
63046;SDS011;62025;39.238;9.126;2022-08-18T16:16:21;12.32;;;2.97;;
63046;SDS011;62025;39.238;9.126;2022-08-18T16:18:49;15.73;;;4.07;;
63046;SDS011;62025;39.238;9.126;2022-08-18T16:21:17;12.52;;;2.60;;
63046;SDS011;62025;39.238;9.126;2022-08-18T16:23:46;11.38;;;2.70;;
63046;SDS011;62025;39.238;9.126;2022-08-18T16:26:16;7.43;;;2.20;;
63046;SDS011;62025;39.238;9.126;2022-08-18T16:31:14;10.48;;;2.35;;
63046;SDS011;62025;39.238;9.126;2022-08-18T16:33:41;10.93;;;2.88;;
63046;SDS011;62025;39.238;9.126;2022-08-18T16:36:08;8.70;;;2.65;;
63046;SDS011;62025;39.238;9.126;2022-08-18T16:38:36;12.77;;;2.53;;
63046;SDS011;62025;39.238;9.126;2022-08-18T16:41:04;12.35;;;2.95;;
63046;SDS011;62025;39.238;9.126;2022-08-18T16:43:33;13.73;;;2.50;;
63046;SDS011;62025;39.238;9.126;2022-08-18T16:46:01;8.65;;;2.13;;
63046;SDS011;62025;39.238;9.126;2022-08-18T16:50:55;15.63;;;2.63;;
63046;SDS011;62025;39.238;9.126;2022-08-18T16:53:22;8.35;;;2.10;;
63046;SDS011;62025;39.238;9.126;2022-08-18T16:55:48;9.68;;;2.08;;
63046;SDS011;62025;39.238;9.126;2022-08-18T16:58:14;20.20;;;3.38;;
63046;SDS011;62025;39.238;9.126;2022-08-18T17:01:00;14.23;;;2.33;;
63046;SDS011;62025;39.238;9.126;2022-08-18T17:03:45;10.13;;;2.35;;
63046;SDS011;62025;39.238;9.126;2022-08-18T17:06:30;11.65;;;2.15;;
63046;SDS011;62025;39.238;9.126;2022-08-18T17:08:56;16.90;;;1.90;;
63046;SDS011;62025;39.238;9.126;2022-08-18T17:11:23;10.02;;;2.13;;
63046;SDS011;62025;39.238;9.126;2022-08-18T17:13:54;14.38;;;2.63;;
63046;SDS011;62025;39.238;9.126;2022-08-18T17:16:24;11.40;;;3.20;;
63046;SDS011;62025;39.238;9.126;2022-08-18T17:18:53;11.60;;;2.53;;
63046;SDS011;62025;39.238;9.126;2022-08-18T17:21:21;9.80;;;2.58;;
63046;SDS011;62025;39.238;9.126;2022-08-18T17:23:54;8.85;;;2.35;;
63046;SDS011;62025;39.238;9.126;2022-08-18T17:26:41;16.35;;;2.70;;
63046;SDS011;62025;39.238;9.126;2022-08-18T17:32:00;17.42;;;2.85;;
63046;SDS011;62025;39.238;9.126;2022-08-18T17:34:34;9.68;;;2.50;;
63046;SDS011;62025;39.238;9.126;2022-08-18T17:37:08;15.27;;;2.78;;
63046;SDS011;62025;39.238;9.126;2022-08-18T17:39:38;13.52;;;2.30;;
63046;SDS011;62025;39.238;9.126;2022-08-18T17:42:15;15.30;;;2.75;;
63046;SDS011;62025;39.238;9.126;2022-08-18T17:44:51;24.80;;;3.08;;
63046;SDS011;62025;39.238;9.126;2022-08-18T17:47:26;12.93;;;2.40;;
63046;SDS011;62025;39.238;9.126;2022-08-18T17:50:50;17.10;;;2.95;;
63046;SDS011;62025;39.238;9.126;2022-08-18T17:53:29;8.98;;;2.30;;
63046;SDS011;62025;39.238;9.126;2022-08-18T17:56:03;12.18;;;2.22;;
63046;SDS011;62025;39.238;9.126;2022-08-18T17:58:35;19.05;;;2.28;;
63046;SDS011;62025;39.238;9.126;2022-08-18T18:01:14;12.05;;;2.25;;
63046;SDS011;62025;39.238;9.126;2022-08-18T18:03:42;8.50;;;2.10;;
63046;SDS011;62025;39.238;9.126;2022-08-18T18:06:10;12.25;;;2.17;;
63046;SDS011;62025;39.238;9.126;2022-08-18T18:08:46;14.07;;;2.83;;
63046;SDS011;62025;39.238;9.126;2022-08-18T18:11:33;12.52;;;2.60;;
63046;SDS011;62025;39.238;9.126;2022-08-18T18:17:16;12.93;;;2.45;;
63046;SDS011;62025;39.238;9.126;2022-08-18T18:19:50;9.15;;;2.47;;